Time;durP1;ratioP1;P1;durP2;ratioP2;P2;SDS_P1;SDS_P2;PMS_P1;PMS_P2;Temp;Humidity;BMP_temperature;BMP_pressure;BME280_temperature;BME280_humidity;BME280_pressure;Samples;Min_cycle;Max_cycle;Signal;HPM_P1;HPM_P2
2021/03/21 00:01:34;;;;;;;0.47;0.47;;;4.10;99.90;;;;;;4399282;32;20164;-55
2021/03/21 00:03:59;;;;;;;0.40;0.40;;;4.10;99.90;;;;;;4399731;32;20073;-54
2021/03/21 00:06:25;;;;;;;0.50;0.50;;;4.10;99.90;;;;;;4414283;32;20084;-54
2021/03/21 00:08:50;;;;;;;0.40;0.40;;;4.10;99.90;;;;;;4413412;32;20070;-56
2021/03/21 00:11:16;;;;;;;0.40;0.40;;;4.20;99.90;;;;;;4412748;32;20061;-57
2021/03/21 00:13:41;;;;;;;0.50;0.50;;;4.10;99.90;;;;;;4400133;32;20585;-55
2021/03/21 00:16:07;;;;;;;0.50;0.50;;;4.10;99.90;;;;;;4399322;32;20642;-56
2021/03/21 00:18:36;;;;;;;0.20;0.20;;;4.10;99.90;;;;;;4397180;32;20061;-57
2021/03/21 00:21:03;;;;;;;0.55;0.55;;;4.00;99.90;;;;;;4382426;32;20085;-55
2021/03/21 00:23:29;;;;;;;0.52;0.52;;;4.10;99.90;;;;;;4396252;32;20127;-53
2021/03/21 00:25:54;;;;;;;0.40;0.40;;;4.10;99.90;;;;;;4410987;32;20058;-56
2021/03/21 00:28:24;;;;;;;0.50;0.50;;;4.20;99.90;;;;;;4412467;32;20061;-56
2021/03/21 00:30:50;;;;;;;0.52;0.52;;;4.30;99.90;;;;;;4387355;32;20065;-55
2021/03/21 00:33:19;;;;;;;1.60;0.75;;;4.20;99.90;;;;;;4400478;32;20069;-56
2021/03/21 00:35:44;;;;;;;2.42;0.65;;;4.20;99.90;;;;;;4399296;32;20065;-54
2021/03/21 00:38:22;;;;;;;0.60;0.60;;;4.20;99.90;;;;;;4412409;32;20161;-55
2021/03/21 00:40:48;;;;;;;0.40;0.40;;;4.30;99.90;;;;;;4396439;32;20549;-56
2021/03/21 00:43:14;;;;;;;2.22;1.33;;;4.30;99.90;;;;;;4396407;32;20057;-55
2021/03/21 00:45:39;;;;;;;0.43;0.43;;;4.30;99.90;;;;;;4409697;32;20074;-56
2021/03/21 00:48:12;;;;;;;0.30;0.30;;;4.30;99.90;;;;;;4409749;32;20607;-55
2021/03/21 00:50:38;;;;;;;0.35;0.35;;;4.30;99.90;;;;;;4398743;32;20104;-56
2021/03/21 00:53:03;;;;;;;0.30;0.30;;;4.30;99.90;;;;;;4416623;32;20078;-58
2021/03/21 00:55:29;;;;;;;0.68;0.57;;;4.40;99.90;;;;;;4421857;32;20066;-57
2021/03/21 00:57:55;;;;;;;0.52;0.45;;;4.40;99.90;;;;;;4418524;32;20062;-56
2021/03/21 01:00:32;;;;;;;0.30;0.30;;;4.40;99.90;;;;;;4411729;32;20713;-56
2021/03/21 01:02:58;;;;;;;0.35;0.35;;;4.40;99.90;;;;;;4398318;32;20134;-54
2021/03/21 01:05:28;;;;;;;0.40;0.40;;;4.40;99.90;;;;;;4399142;32;20123;-57
2021/03/21 01:07:55;;;;;;;1.42;0.60;;;4.40;99.90;;;;;;4386309;32;20073;-56
2021/03/21 01:10:25;;;;;;;1.15;0.93;;;4.30;99.90;;;;;;4399499;32;20057;-52
2021/03/21 01:12:52;;;;;;;0.40;0.40;;;4.20;99.90;;;;;;4399564;32;20058;-56
2021/03/21 01:15:18;;;;;;;0.90;0.90;;;4.20;99.90;;;;;;4412423;32;20066;-54
2021/03/21 01:17:44;;;;;;;0.70;0.68;;;4.20;99.90;;;;;;4399201;32;20070;-53
2021/03/21 01:20:10;;;;;;;0.80;0.80;;;4.20;99.90;;;;;;4412096;32;20081;-55
2021/03/21 01:22:35;;;;;;;0.90;0.82;;;4.20;99.90;;;;;;4412269;32;20124;-54
2021/03/21 01:25:02;;;;;;;0.95;0.88;;;4.10;99.90;;;;;;4413566;32;20078;-55
2021/03/21 01:27:28;;;;;;;0.35;0.35;;;4.10;99.90;;;;;;4412853;32;20093;-56
2021/03/21 01:29:53;;;;;;;0.50;0.50;;;4.10;99.90;;;;;;4411920;32;20054;-51
2021/03/21 01:32:19;;;;;;;0.40;0.40;;;4.10;99.90;;;;;;4413752;32;20420;-57
2021/03/21 01:34:45;;;;;;;0.40;0.40;;;4.00;99.90;;;;;;4413224;32;20083;-55
2021/03/21 01:37:10;;;;;;;0.50;0.50;;;4.10;99.90;;;;;;4413465;32;20118;-57
2021/03/21 01:39:36;;;;;;;0.50;0.50;;;4.10;99.90;;;;;;4412210;32;20491;-56
2021/03/21 01:42:07;;;;;;;0.30;0.30;;;4.10;99.90;;;;;;4413549;32;20082;-56
2021/03/21 01:44:33;;;;;;;0.45;0.45;;;4.10;99.90;;;;;;4399728;32;20503;-55
2021/03/21 01:47:01;;;;;;;0.50;0.50;;;4.00;99.90;;;;;;4399480;32;20082;-56
2021/03/21 01:49:32;;;;;;;1.35;1.05;;;4.10;99.90;;;;;;4413728;32;20570;-55
2021/03/21 01:51:58;;;;;;;;;;;4.00;99.90;;;;;;4414065;32;20081;-56
2021/03/21 01:54:26;;;;;;;0.47;0.45;;;4.00;99.90;;;;;;4398884;32;20383;-56
2021/03/21 01:56:55;;;;;;;0.40;0.40;;;4.00;99.90;;;;;;4412356;32;20132;-53
2021/03/21 01:59:24;;;;;;;0.47;0.47;;;4.00;99.90;;;;;;4398947;32;20477;-57
2021/03/21 02:01:51;;;;;;;1.05;0.88;;;3.90;99.90;;;;;;4412264;32;20061;-57
2021/03/21 02:04:17;;;;;;;0.60;0.60;;;3.90;99.90;;;;;;4397782;32;20591;-54
2021/03/21 02:07:22;;;;;;;0.50;0.50;;;3.90;99.90;;;;;;4412518;32;20061;-55
2021/03/21 02:09:56;;;;;;;0.73;0.73;;;3.80;99.90;;;;;;4392529;32;20066;-57
2021/03/21 02:12:54;;;;;;;0.75;0.75;;;3.80;99.90;;;;;;4398271;32;20057;-53
2021/03/21 02:15:26;;;;;;;0.62;0.62;;;3.80;99.90;;;;;;4402728;32;20112;-56
2021/03/21 02:18:06;;;;;;;0.30;0.30;;;3.80;99.90;;;;;;4412582;32;20413;-56
2021/03/21 02:21:03;;;;;;;2.03;1.08;;;3.70;99.90;;;;;;4399293;32;20412;-57
2021/03/21 02:24:08;;;;;;;0.60;0.60;;;3.70;99.90;;;;;;4390626;32;20523;-54
2021/03/21 02:26:48;;;;;;;21.42;1.12;;;3.70;99.90;;;;;;4391628;32;20061;-56
2021/03/21 02:29:23;;;;;;;0.45;0.45;;;3.70;99.90;;;;;;4386284;32;20066;-56
2021/03/21 02:32:09;;;;;;;1.55;1.35;;;3.70;99.90;;;;;;4413108;32;20078;-55
2021/03/21 02:34:48;;;;;;;0.50;0.50;;;3.70;99.90;;;;;;4386736;32;20074;-55
2021/03/21 02:37:17;;;;;;;0.62;0.62;;;3.70;99.90;;;;;;4413682;32;20105;-56
2021/03/21 02:39:54;;;;;;;0.30;0.30;;;3.80;99.90;;;;;;4411559;32;20078;-55
2021/03/21 02:42:29;;;;;;;0.50;0.50;;;3.80;99.90;;;;;;4412455;32;20057;-57
2021/03/21 02:45:01;;;;;;;0.65;0.60;;;3.90;99.90;;;;;;4399057;32;20419;-52
2021/03/21 02:47:30;;;;;;;0.85;0.65;;;3.80;99.90;;;;;;4398778;32;20066;-57
2021/03/21 02:49:59;;;;;;;0.37;0.37;;;3.90;99.90;;;;;;4396953;32;20070;-56
2021/03/21 02:52:48;;;;;;;0.40;0.40;;;3.90;99.90;;;;;;4398464;32;20115;-54
2021/03/21 02:55:35;;;;;;;0.95;0.93;;;4.00;99.90;;;;;;4387834;32;20416;-57
2021/03/21 02:58:25;;;;;;;0.45;0.45;;;3.90;99.90;;;;;;4397398;32;20117;-57
2021/03/21 03:00:57;;;;;;;0.50;0.50;;;3.90;99.90;;;;;;4400406;32;20066;-53
2021/03/21 03:03:26;;;;;;;0.40;0.40;;;3.90;99.90;;;;;;4411007;32;20507;-54
2021/03/21 03:05:55;;;;;;;0.35;0.32;;;3.90;99.90;;;;;;4398333;32;20091;-55
2021/03/21 03:08:33;;;;;;;0.40;0.40;;;4.00;99.90;;;;;;4397553;32;20062;-57
2021/03/21 03:11:03;;;;;;;0.47;0.47;;;4.00;99.90;;;;;;4383988;32;20526;-57
2021/03/21 03:13:37;;;;;;;1.00;0.57;;;4.00;99.90;;;;;;4384306;32;20065;-55
2021/03/21 03:16:12;;;;;;;0.75;0.75;;;4.00;99.90;;;;;;4385666;32;20075;-56
2021/03/21 03:18:48;;;;;;;0.40;0.40;;;4.00;99.90;;;;;;4399766;32;20065;-56
2021/03/21 03:21:22;;;;;;;0.73;0.73;;;4.00;99.90;;;;;;4397458;32;20122;-55
2021/03/21 03:23:55;;;;;;;0.68;0.60;;;4.10;99.90;;;;;;4396790;32;20062;-57
2021/03/21 03:26:28;;;;;;;0.55;0.55;;;4.10;99.90;;;;;;4397610;32;20082;-56
2021/03/21 03:29:06;;;;;;;1.05;0.62;;;4.20;99.90;;;;;;4385718;32;20073;-58
2021/03/21 03:31:42;;;;;;;0.60;0.60;;;4.20;99.90;;;;;;4385237;32;20066;-57
2021/03/21 03:34:09;;;;;;;0.65;0.65;;;4.20;99.90;;;;;;4399145;32;20117;-56
2021/03/21 03:36:35;;;;;;;0.68;0.68;;;4.10;99.90;;;;;;4371897;32;20194;-53
2021/03/21 03:39:01;;;;;;;0.95;0.52;;;4.20;99.90;;;;;;4395707;32;20506;-55
2021/03/21 03:41:44;;;;;;;0.40;0.40;;;4.20;99.90;;;;;;4378932;32;20074;-55
2021/03/21 03:44:26;;;;;;;0.50;0.50;;;4.30;99.90;;;;;;4382071;32;20078;-53
2021/03/21 03:46:54;;;;;;;0.50;0.50;;;4.30;99.90;;;;;;4397820;32;20117;-56
2021/03/21 03:49:46;;;;;;;1.60;0.65;;;4.30;99.90;;;;;;4398024;32;20074;-52
2021/03/21 03:52:52;;;;;;;0.62;0.62;;;4.30;99.90;;;;;;4385743;32;20085;-57
2021/03/21 03:55:28;;;;;;;0.40;0.40;;;4.30;99.90;;;;;;4386713;32;20067;-53
2021/03/21 03:58:03;;;;;;;0.43;0.43;;;4.30;99.90;;;;;;4397497;32;20145;-51
2021/03/21 04:00:32;;;;;;;0.60;0.60;;;4.40;99.90;;;;;;4384432;32;20519;-55
2021/03/21 04:03:08;;;;;;;1.83;1.00;;;4.40;99.90;;;;;;4384752;32;20074;-53
2021/03/21 04:05:41;;;;;;;0.40;0.40;;;4.30;99.90;;;;;;4384079;32;20066;-53
2021/03/21 04:08:15;;;;;;;0.40;0.40;;;4.40;99.90;;;;;;4384624;32;20074;-52
2021/03/21 04:10:47;;;;;;;1.33;0.82;;;4.40;99.90;;;;;;4396696;32;20125;-53
2021/03/21 04:13:18;;;;;;;0.32;0.32;;;4.40;99.90;;;;;;4400350;32;20523;-53
2021/03/21 04:15:47;;;;;;;0.50;0.50;;;4.40;99.90;;;;;;4415384;32;20417;-53
2021/03/21 04:18:42;;;;;;;0.62;0.62;;;4.40;99.90;;;;;;4412048;32;20129;-57
2021/03/21 04:21:16;;;;;;;0.57;0.57;;;4.40;99.90;;;;;;4402329;32;20138;-52
2021/03/21 04:24:03;;;;;;;0.60;0.60;;;4.40;99.90;;;;;;4413328;32;20447;-55
2021/03/21 04:26:43;;;;;;;0.35;0.35;;;4.40;99.90;;;;;;4401859;32;20142;-56
2021/03/21 04:29:31;;;;;;;1.40;0.82;;;4.50;99.90;;;;;;4399498;32;20112;-56
2021/03/21 04:32:01;;;;;;;0.40;0.40;;;4.40;99.90;;;;;;4399622;32;20515;-57
2021/03/21 04:34:28;;;;;;;0.52;0.52;;;4.40;99.90;;;;;;4399058;32;20062;-57
2021/03/21 04:36:56;;;;;;;0.50;0.50;;;4.40;99.90;;;;;;4412727;32;20053;-57
2021/03/21 04:39:27;;;;;;;0.95;0.95;;;4.40;99.90;;;;;;4411476;32;20066;-52
2021/03/21 04:42:01;;;;;;;0.50;0.50;;;4.40;99.90;;;;;;4398292;32;20079;-54
2021/03/21 04:44:38;;;;;;;1.02;0.40;;;4.40;99.90;;;;;;4400400;32;20109;-54
2021/03/21 04:47:10;;;;;;;1.33;0.75;;;4.40;99.90;;;;;;4400738;32;20062;-52
2021/03/21 04:49:36;;;;;;;0.50;0.50;;;4.40;99.90;;;;;;4386874;32;20090;-52
2021/03/21 04:52:41;;;;;;;0.40;0.40;;;4.40;99.90;;;;;;4413488;32;20066;-53
2021/03/21 04:55:16;;;;;;;0.40;0.40;;;4.40;99.90;;;;;;4394273;32;20397;-58
2021/03/21 04:57:49;;;;;;;0.43;0.43;;;4.40;99.90;;;;;;4386687;32;20065;-58
2021/03/21 05:00:26;;;;;;;0.50;0.50;;;4.50;99.90;;;;;;4400493;32;20472;-58
2021/03/21 05:02:57;;;;;;;0.40;0.40;;;4.50;99.90;;;;;;4399423;32;20397;-57
2021/03/21 05:05:24;;;;;;;;;;;4.50;99.90;;;;;;4413106;32;20065;-57
2021/03/21 05:07:56;;;;;;;0.30;0.30;;;4.50;99.90;;;;;;4412068;32;19965;-56
2021/03/21 05:10:41;;;;;;;0.45;0.45;;;4.50;99.90;;;;;;4398474;32;20515;-58
2021/03/21 05:13:20;;;;;;;0.40;0.40;;;4.50;99.90;;;;;;4388431;32;20065;-57
2021/03/21 05:15:58;;;;;;;0.40;0.40;;;4.60;99.90;;;;;;4389527;32;20493;-57
2021/03/21 05:18:36;;;;;;;0.43;0.43;;;4.60;99.90;;;;;;4412857;32;20086;-53
2021/03/21 05:21:13;;;;;;;0.60;0.60;;;4.60;99.90;;;;;;4412907;32;20542;-54
2021/03/21 05:23:48;;;;;;;0.40;0.40;;;4.70;99.90;;;;;;4399393;32;20132;-52
2021/03/21 05:26:22;;;;;;;0.32;0.32;;;4.60;99.90;;;;;;4398678;32;20121;-52
2021/03/21 05:29:07;;;;;;;0.40;0.40;;;4.70;99.90;;;;;;4410559;32;20455;-53
2021/03/21 05:31:32;;;;;;;0.30;0.30;;;4.70;99.90;;;;;;4413792;32;20121;-56
2021/03/21 05:34:00;;;;;;;0.30;0.30;;;4.70;99.90;;;;;;4412893;32;20062;-55
2021/03/21 05:36:47;;;;;;;0.50;0.50;;;4.70;99.90;;;;;;4414521;32;20496;-56
2021/03/21 05:39:38;;;;;;;0.40;0.40;;;4.80;99.90;;;;;;4401859;32;20085;-53
2021/03/21 05:42:35;;;;;;;0.32;0.32;;;4.80;99.90;;;;;;4412550;32;20054;-56
2021/03/21 05:45:28;;;;;;;0.30;0.30;;;4.80;99.90;;;;;;4402447;32;20148;-54
2021/03/21 05:48:24;;;;;;;0.22;0.22;;;4.80;99.90;;;;;;4401886;32;20082;-56
2021/03/21 05:50:59;;;;;;;0.40;0.40;;;4.80;99.90;;;;;;4411398;32;20545;-53
2021/03/21 05:53:57;;;;;;;0.60;0.60;;;4.80;99.90;;;;;;4413370;32;20073;-54
2021/03/21 05:56:46;;;;;;;0.30;0.30;;;4.80;99.90;;;;;;4387856;32;20428;-56
2021/03/21 05:59:52;;;;;;;0.30;0.30;;;4.80;99.90;;;;;;4400821;32;20077;-57
2021/03/21 06:02:46;;;;;;;0.30;0.30;;;4.80;99.90;;;;;;4392907;32;20066;-54
2021/03/21 06:05:33;;;;;;;0.65;0.65;;;4.80;99.90;;;;;;4402325;32;20062;-55
2021/03/21 06:08:30;;;;;;;0.37;0.37;;;4.80;99.90;;;;;;4401797;32;20061;-52
2021/03/21 06:11:00;;;;;;;1.45;0.85;;;4.80;99.90;;;;;;4400093;32;20116;-55
2021/03/21 06:13:53;;;;;;;0.30;0.30;;;4.90;99.90;;;;;;4413297;32;20078;-54
2021/03/21 06:16:43;;;;;;;0.80;0.40;;;4.90;99.90;;;;;;4401054;32;20504;-56
2021/03/21 06:19:28;;;;;;;0.73;0.43;;;4.90;99.90;;;;;;4401732;32;20557;-55
2021/03/21 06:22:33;;;;;;;0.40;0.40;;;5.00;99.90;;;;;;4411985;32;20081;-54
2021/03/21 06:25:20;;;;;;;0.73;0.45;;;5.00;99.90;;;;;;4393385;32;20120;-53
2021/03/21 06:28:20;;;;;;;0.37;0.37;;;5.00;99.90;;;;;;4400124;32;20125;-56
2021/03/21 06:31:21;;;;;;;0.47;0.47;;;5.10;99.90;;;;;;4388466;32;20073;-56
2021/03/21 06:34:02;;;;;;;0.50;0.50;;;5.10;99.90;;;;;;4385895;32;20334;-57
2021/03/21 06:36:51;;;;;;;0.43;0.43;;;5.10;99.90;;;;;;4386357;32;20086;-57
2021/03/21 06:39:46;;;;;;;0.30;0.30;;;5.10;99.90;;;;;;4381699;32;20417;-54
2021/03/21 06:42:25;;;;;;;0.40;0.40;;;5.10;99.90;;;;;;4385048;32;20070;-56
2021/03/21 06:45:02;;;;;;;0.40;0.40;;;5.10;99.90;;;;;;4396340;32;20074;-56
2021/03/21 06:47:52;;;;;;;0.40;0.40;;;5.20;99.90;;;;;;4398664;32;20062;-55
2021/03/21 06:50:33;;;;;;;0.40;0.40;;;5.20;99.90;;;;;;4386537;32;20066;-54
2021/03/21 06:53:21;;;;;;;0.40;0.40;;;5.20;99.90;;;;;;4398709;32;20157;-52
2021/03/21 06:55:54;;;;;;;0.40;0.40;;;5.20;99.90;;;;;;4387119;32;20081;-57
2021/03/21 06:59:00;;;;;;;0.85;0.85;;;5.30;99.90;;;;;;4383234;32;20507;-57
2021/03/21 07:01:50;;;;;;;0.30;0.30;;;5.30;99.90;;;;;;4386305;32;20074;-55
2021/03/21 07:04:53;;;;;;;0.35;0.35;;;5.40;99.90;;;;;;4387759;32;20082;-53
2021/03/21 07:07:52;;;;;;;0.30;0.30;;;5.40;99.90;;;;;;4387611;32;20066;-56
2021/03/21 07:10:57;;;;;;;0.30;0.30;;;5.50;99.90;;;;;;4400330;32;20412;-57
2021/03/21 07:13:47;;;;;;;0.40;0.40;;;5.40;99.90;;;;;;4394442;32;20498;-57
2021/03/21 07:16:34;;;;;;;0.40;0.40;;;5.40;99.90;;;;;;4402227;32;20074;-56
2021/03/21 07:19:20;;;;;;;0.70;0.70;;;5.50;99.90;;;;;;4402064;32;20082;-57
2021/03/21 07:22:19;;;;;;;0.30;0.30;;;5.50;99.90;;;;;;4400843;32;20077;-57
2021/03/21 07:25:06;;;;;;;0.30;0.30;;;5.50;99.90;;;;;;4402283;32;20077;-57
2021/03/21 07:27:45;;;;;;;0.40;0.40;;;5.60;99.90;;;;;;4401363;32;20065;-56
2021/03/21 07:30:50;;;;;;;0.30;0.30;;;5.60;99.90;;;;;;4415414;32;20058;-56
2021/03/21 07:33:44;;;;;;;0.30;0.30;;;5.70;99.90;;;;;;4404391;32;20432;-55
2021/03/21 07:36:29;;;;;;;0.28;0.28;;;5.70;99.90;;;;;;4405398;32;20054;-57
2021/03/21 07:39:35;;;;;;;0.30;0.30;;;5.70;99.90;;;;;;4415005;32;20115;-55
2021/03/21 07:42:22;;;;;;;0.65;0.65;;;5.70;99.90;;;;;;4395848;32;20129;-57
2021/03/21 07:45:02;;;;;;;0.20;0.20;;;5.70;99.90;;;;;;4416160;32;20527;-56
2021/03/21 07:47:53;;;;;;;0.30;0.30;;;5.80;99.90;;;;;;4415427;32;20070;-56
2021/03/21 07:50:24;;;;;;;0.40;0.40;;;5.80;99.90;;;;;;4415798;32;20081;-56
2021/03/21 07:52:52;;;;;;;;;;;5.80;99.90;;;;;;4416373;32;20078;-57
2021/03/21 07:55:26;;;;;;;0.30;0.30;;;5.80;99.90;;;;;;4415989;32;19944;-53
2021/03/21 07:58:05;;;;;;;0.88;0.50;;;5.90;99.90;;;;;;4414074;32;20522;-54
2021/03/21 08:00:31;;;;;;;0.30;0.30;;;5.90;99.90;;;;;;4400999;32;20389;-55
2021/03/21 08:03:15;;;;;;;0.35;0.35;;;6.00;99.90;;;;;;4415140;32;20081;-56
2021/03/21 08:05:41;;;;;;;0.28;0.28;;;6.00;99.90;;;;;;4415649;32;20086;-56
2021/03/21 08:08:14;;;;;;;0.30;0.30;;;6.00;99.90;;;;;;4414095;32;20053;-57
2021/03/21 08:10:41;;;;;;;0.40;0.40;;;6.00;99.90;;;;;;4389412;32;20085;-57
2021/03/21 08:13:14;;;;;;;0.40;0.40;;;6.10;99.90;;;;;;4415247;32;20054;-57
2021/03/21 08:15:40;;;;;;;0.20;0.20;;;6.10;99.90;;;;;;4400162;32;20062;-57
2021/03/21 08:18:34;;;;;;;0.30;0.30;;;6.10;99.90;;;;;;4414561;32;20468;-52
2021/03/21 08:21:05;;;;;;;0.40;0.40;;;6.10;99.90;;;;;;4403862;32;20070;-55
2021/03/21 08:23:36;;;;;;;0.30;0.30;;;6.10;99.90;;;;;;4400378;32;20125;-56
2021/03/21 08:26:05;;;;;;;0.30;0.30;;;6.10;99.90;;;;;;4400008;32;20069;-56
2021/03/21 08:28:36;;;;;;;0.30;0.30;;;6.10;99.90;;;;;;4401416;32;20069;-57
2021/03/21 08:31:04;;;;;;;0.40;0.40;;;6.10;99.90;;;;;;4414729;32;20128;-55
2021/03/21 08:33:34;;;;;;;0.30;0.30;;;6.10;99.90;;;;;;4402101;32;20057;-52
2021/03/21 08:36:21;;;;;;;0.40;0.40;;;6.10;99.90;;;;;;4402231;32;20554;-54
2021/03/21 08:39:15;;;;;;;0.20;0.20;;;6.10;99.90;;;;;;4401163;32;20057;-57
2021/03/21 08:41:50;;;;;;;0.30;0.30;;;6.10;99.90;;;;;;4400903;32;20085;-57
2021/03/21 08:44:35;;;;;;;0.30;0.30;;;6.10;99.90;;;;;;4414797;32;20066;-57
2021/03/21 08:47:03;;;;;;;0.30;0.30;;;6.10;99.90;;;;;;4415931;32;20082;-57
2021/03/21 08:49:36;;;;;;;0.40;0.40;;;6.10;99.90;;;;;;4388242;32;20440;-57
2021/03/21 08:52:02;;;;;;;1.45;0.73;;;6.20;99.90;;;;;;4400572;32;20125;-55
2021/03/21 08:54:32;;;;;;;0.30;0.30;;;6.30;99.90;;;;;;4414258;32;20086;-57
2021/03/21 08:57:13;;;;;;;0.30;0.30;;;6.50;99.90;;;;;;4400181;32;20070;-56
2021/03/21 08:59:42;;;;;;;2.20;0.95;;;6.50;99.90;;;;;;4402683;32;20062;-57
2021/03/21 09:02:12;;;;;;;0.30;0.30;;;6.50;99.90;;;;;;4401531;32;20519;-57
2021/03/21 09:04:42;;;;;;;33.15;0.95;;;6.40;99.90;;;;;;4401244;32;20058;-55
2021/03/21 09:07:21;;;;;;;0.40;0.40;;;6.40;99.90;;;;;;4400972;32;20082;-53
2021/03/21 09:10:08;;;;;;;1.17;0.75;;;6.30;99.90;;;;;;4400079;32;20128;-56
2021/03/21 09:12:40;;;;;;;0.40;0.40;;;6.30;99.90;;;;;;4402312;32;20487;-56
2021/03/21 09:15:30;;;;;;;0.40;0.40;;;6.40;99.90;;;;;;4388048;32;20086;-56
2021/03/21 09:18:17;;;;;;;0.60;0.60;;;6.40;99.90;;;;;;4401070;32;20479;-55
2021/03/21 09:21:02;;;;;;;0.40;0.40;;;6.50;99.90;;;;;;4402626;32;20081;-55
2021/03/21 09:23:48;;;;;;;38.67;0.88;;;6.50;99.90;;;;;;4402660;32;20106;-56
2021/03/21 09:26:20;;;;;;;0.50;0.50;;;6.50;99.90;;;;;;4413995;32;20053;-56
2021/03/21 09:28:53;;;;;;;0.40;0.40;;;6.40;99.90;;;;;;4400066;32;20077;-53
2021/03/21 09:31:19;;;;;;;0.40;0.40;;;6.40;99.90;;;;;;4400937;32;20125;-52
2021/03/21 09:33:50;;;;;;;0.40;0.40;;;6.40;99.90;;;;;;4414808;32;20086;-54
2021/03/21 09:36:39;;;;;;;1.10;1.00;;;6.40;99.90;;;;;;4388648;32;20106;-56
2021/03/21 09:39:13;;;;;;;0.30;0.30;;;6.40;99.90;;;;;;4391263;32;20078;-58
2021/03/21 09:41:39;;;;;;;2.53;1.08;;;6.50;99.90;;;;;;4399508;32;20086;-53
2021/03/21 09:44:20;;;;;;;0.30;0.30;;;6.50;99.90;;;;;;4400845;32;20082;-54
2021/03/21 09:46:52;;;;;;;0.50;0.50;;;6.30;99.90;;;;;;4401107;32;20061;-57
2021/03/21 09:49:43;;;;;;;0.43;0.43;;;6.30;99.90;;;;;;4400759;32;20093;-53
2021/03/21 09:52:47;;;;;;;3.75;0.77;;;6.40;99.90;;;;;;4400757;32;20065;-57
2021/03/21 09:55:40;;;;;;;3.60;1.48;;;6.50;99.90;;;;;;4401928;32;20069;-57
2021/03/21 09:58:14;;;;;;;14.75;1.23;;;6.50;99.90;;;;;;4402283;32;20514;-57
2021/03/21 10:00:42;;;;;;;0.77;0.70;;;6.50;99.90;;;;;;4414320;32;20086;-56
2021/03/21 10:03:11;;;;;;;0.40;0.40;;;6.60;99.90;;;;;;4400522;32;20065;-56
2021/03/21 10:05:47;;;;;;;0.60;0.60;;;6.50;99.90;;;;;;4400450;32;20061;-57
2021/03/21 10:08:36;;;;;;;0.37;0.37;;;6.60;99.90;;;;;;4399443;32;20070;-56
2021/03/21 10:11:07;;;;;;;0.68;0.68;;;6.50;99.90;;;;;;4393294;32;20093;-58
2021/03/21 10:13:35;;;;;;;3.10;1.35;;;6.50;99.90;;;;;;4388520;32;20117;-57
2021/03/21 10:16:11;;;;;;;0.93;0.93;;;6.40;99.90;;;;;;4400126;32;20069;-58
2021/03/21 10:18:50;;;;;;;0.40;0.40;;;6.50;99.90;;;;;;4414935;32;20165;-58
2021/03/21 10:21:29;;;;;;;0.40;0.40;;;6.50;99.90;;;;;;4411334;32;20081;-56
2021/03/21 10:23:58;;;;;;;1.85;1.05;;;6.60;99.90;;;;;;4400039;32;20087;-57
2021/03/21 10:26:27;;;;;;;1.23;0.95;;;6.60;99.90;;;;;;4413032;32;20061;-56
2021/03/21 10:28:56;;;;;;;36.20;1.25;;;6.60;99.90;;;;;;4400037;32;20058;-57
2021/03/21 10:31:25;;;;;;;0.50;0.50;;;6.60;99.90;;;;;;4414607;32;20066;-56
2021/03/21 10:33:54;;;;;;;0.37;0.37;;;6.70;99.90;;;;;;4415215;32;20457;-56
2021/03/21 10:36:41;;;;;;;0.50;0.50;;;6.70;99.90;;;;;;4414632;32;20470;-57
2021/03/21 10:39:24;;;;;;;0.98;0.95;;;6.60;99.90;;;;;;4401843;32;20069;-56
2021/03/21 10:41:54;;;;;;;0.98;0.93;;;6.60;99.90;;;;;;4413757;32;20256;-56
2021/03/21 10:44:22;;;;;;;4.78;1.15;;;6.70;99.90;;;;;;4410719;32;92671;-58
2021/03/21 10:46:52;;;;;;;0.73;0.70;;;6.80;99.90;;;;;;4412779;32;20088;-56
2021/03/21 10:49:59;;;;;;;0.77;0.73;;;6.70;99.90;;;;;;4400747;32;20057;-57
2021/03/21 10:52:38;;;;;;;0.40;0.40;;;6.70;99.90;;;;;;4401363;32;20057;-56
2021/03/21 10:55:18;;;;;;;0.82;0.80;;;6.70;99.90;;;;;;4399502;32;20090;-57
2021/03/21 10:57:45;;;;;;;0.57;0.57;;;6.70;99.90;;;;;;4412856;32;20510;-56
2021/03/21 11:00:20;;;;;;;7.57;0.57;;;6.70;99.90;;;;;;4413950;32;20110;-57
2021/03/21 11:02:50;;;;;;;0.45;0.45;;;6.70;99.90;;;;;;4414081;32;20139;-58
2021/03/21 11:05:42;;;;;;;0.60;0.60;;;6.60;99.90;;;;;;4399296;32;20144;-57
2021/03/21 11:08:25;;;;;;;0.95;0.93;;;6.50;99.90;;;;;;4403019;32;20065;-57
2021/03/21 11:10:55;;;;;;;3.83;1.02;;;6.50;99.90;;;;;;4401014;32;20453;-57
2021/03/21 11:13:30;;;;;;;35.07;1.33;;;6.60;99.90;;;;;;4400222;32;20527;-56
2021/03/21 11:15:57;;;;;;;2.85;1.08;;;6.60;99.90;;;;;;4414478;32;20058;-56
2021/03/21 11:18:29;;;;;;;1.65;1.25;;;6.60;99.90;;;;;;4414807;32;20129;-57
2021/03/21 11:21:17;;;;;;;0.30;0.30;;;6.60;99.90;;;;;;4400553;32;20086;-57
2021/03/21 11:23:49;;;;;;;5.18;0.65;;;6.60;99.90;;;;;;4403173;32;20057;-57
2021/03/21 11:26:27;;;;;;;3.33;1.50;;;6.60;99.90;;;;;;4399338;32;20391;-57
2021/03/21 11:29:02;;;;;;;0.85;0.82;;;6.70;99.90;;;;;;4389000;32;20082;-57
2021/03/21 11:31:32;;;;;;;1.80;0.82;;;6.70;99.90;;;;;;4400334;32;20082;-54
2021/03/21 11:34:13;;;;;;;0.40;0.40;;;6.70;99.90;;;;;;4401831;32;20069;-58
2021/03/21 11:36:38;;;;;;;4.25;0.98;;;6.70;99.90;;;;;;4415881;32;20089;-54
2021/03/21 11:39:29;;;;;;;0.45;0.40;;;6.70;99.90;;;;;;4415728;32;20057;-58
2021/03/21 11:41:54;;;;;;;0.73;0.47;;;6.70;99.90;;;;;;4405443;32;20054;-57
2021/03/21 11:44:25;;;;;;;0.30;0.30;;;6.80;99.90;;;;;;4416802;32;20120;-57
2021/03/21 11:46:52;;;;;;;0.62;0.62;;;6.80;99.90;;;;;;4416319;32;20105;-55
2021/03/21 11:49:21;;;;;;;0.32;0.32;;;6.80;99.90;;;;;;4389122;32;20085;-57
2021/03/21 11:51:48;;;;;;;0.50;0.50;;;6.80;99.90;;;;;;4401498;32;20062;-56
2021/03/21 11:54:18;;;;;;;0.57;0.57;;;6.70;99.90;;;;;;4401026;32;20069;-57
2021/03/21 11:57:08;;;;;;;2.08;1.02;;;6.70;99.90;;;;;;4387999;32;20066;-57
2021/03/21 11:59:45;;;;;;;0.50;0.50;;;6.80;99.90;;;;;;4401986;32;20086;-55
2021/03/21 12:02:37;;;;;;;1.48;0.70;;;6.90;99.90;;;;;;4415396;32;20078;-56
2021/03/21 12:05:07;;;;;;;1.10;0.60;;;7.00;99.90;;;;;;4391976;32;20078;-57
2021/03/21 12:07:33;;;;;;;3.15;1.30;;;7.10;99.90;;;;;;4400964;32;20511;-52
2021/03/21 12:09:59;;;;;;;1.95;1.33;;;7.20;99.90;;;;;;4414512;32;20153;-57
2021/03/21 12:12:36;;;;;;;7.97;0.85;;;7.40;99.90;;;;;;4414007;32;20050;-57
2021/03/21 12:15:24;;;;;;;10.60;1.02;;;7.60;99.90;;;;;;4400964;32;20074;-52
2021/03/21 12:18:02;;;;;;;0.40;0.40;;;7.60;99.90;;;;;;4415086;32;20433;-53
2021/03/21 12:20:37;;;;;;;1.05;1.02;;;7.80;99.90;;;;;;4388278;32;20408;-54
2021/03/21 12:23:04;;;;;;;0.65;0.65;;;8.00;99.90;;;;;;4401374;32;20057;-54
2021/03/21 12:25:35;;;;;;;5.78;1.52;;;8.50;99.90;;;;;;4402010;32;20058;-55
2021/03/21 12:28:02;;;;;;;;;;;8.90;99.90;;;;;;4401029;32;20074;-54
2021/03/21 12:30:35;;;;;;;0.35;0.35;;;9.30;99.90;;;;;;4400700;32;19995;-56
2021/03/21 12:33:35;;;;;;;1.87;1.15;;;9.90;99.90;;;;;;4401698;32;20054;-57
2021/03/21 12:36:07;;;;;;;0.55;0.55;;;10.40;99.90;;;;;;4414372;32;20136;-58
2021/03/21 12:38:38;;;;;;;0.80;0.80;;;10.70;99.90;;;;;;4415048;32;20106;-58
2021/03/21 12:41:40;;;;;;;23.45;2.55;;;10.60;99.90;;;;;;4401105;32;20120;-57
2021/03/21 12:44:26;;;;;;;1.33;1.05;;;11.00;99.90;;;;;;4405175;32;20108;-58
2021/03/21 12:47:00;;;;;;;13.55;0.55;;;11.70;99.90;;;;;;4414765;32;20073;-56
2021/03/21 12:49:39;;;;;;;1.02;0.90;;;11.30;99.90;;;;;;4399553;32;20177;-57
2021/03/21 12:52:13;;;;;;;3.17;0.77;;;10.90;99.90;;;;;;4402097;32;20082;-56
2021/03/21 12:54:40;;;;;;;0.52;0.52;;;10.60;99.90;;;;;;4414148;32;20071;-56
2021/03/21 12:57:11;;;;;;;0.43;0.43;;;10.60;99.90;;;;;;4412792;32;20476;-57
2021/03/21 12:59:38;;;;;;;0.40;0.40;;;10.40;99.90;;;;;;4415066;32;20488;-57
2021/03/21 13:02:04;;;;;;;1.00;1.00;;;10.10;99.90;;;;;;4414947;32;20069;-57
2021/03/21 13:04:29;;;;;;;0.45;0.45;;;9.90;99.90;;;;;;4414603;32;20154;-56
2021/03/21 13:06:54;;;;;;;0.50;0.50;;;9.90;99.90;;;;;;4415303;32;20070;-54
2021/03/21 13:09:20;;;;;;;0.30;0.30;;;9.80;99.90;;;;;;4414008;32;20053;-53
2021/03/21 13:11:45;;;;;;;0.40;0.40;;;10.30;99.90;;;;;;4414644;32;20113;-55
2021/03/21 13:14:11;;;;;;;0.30;0.30;;;10.80;99.90;;;;;;4414630;32;20073;-57
2021/03/21 13:16:36;;;;;;;1.80;1.35;;;11.40;99.90;;;;;;4414665;32;20057;-55
2021/03/21 13:19:02;;;;;;;0.40;0.40;;;11.40;99.90;;;;;;4414678;32;20058;-57
2021/03/21 13:21:27;;;;;;;0.80;0.80;;;11.50;99.90;;;;;;4415569;32;20157;-56
2021/03/21 13:23:53;;;;;;;1.02;0.77;;;12.30;99.90;;;;;;4414803;32;20082;-57
2021/03/21 13:26:18;;;;;;;0.45;0.45;;;12.50;99.90;;;;;;4413628;32;20061;-56
2021/03/21 13:28:44;;;;;;;0.55;0.50;;;12.10;99.90;;;;;;4413528;32;20061;-54
2021/03/21 13:31:10;;;;;;;0.68;0.68;;;11.50;99.90;;;;;;4400745;32;20065;-56
2021/03/21 13:33:36;;;;;;;2.45;0.95;;;11.10;99.90;;;;;;4414392;32;20070;-56
2021/03/21 13:36:08;;;;;;;0.60;0.57;;;11.30;99.90;;;;;;4414622;32;20574;-58
2021/03/21 13:38:35;;;;;;;0.40;0.40;;;11.80;99.90;;;;;;4400199;32;20070;-56
2021/03/21 13:41:01;;;;;;;3.45;1.45;;;11.70;99.90;;;;;;4400247;32;20120;-58
2021/03/21 13:43:29;;;;;;;0.90;0.77;;;12.20;99.90;;;;;;4388493;32;20467;-56
2021/03/21 13:45:56;;;;;;;0.30;0.30;;;12.10;99.90;;;;;;4388574;32;20149;-57